createdAt,value
2018-06-24T00:03:16.973Z,15.30
2018-06-24T00:05:45.831Z,15.30
2018-06-24T00:08:14.700Z,15.30
2018-06-24T00:13:12.136Z,15.20
2018-06-24T00:15:41.005Z,15.10
2018-06-24T00:18:09.900Z,15.10
2018-06-24T00:20:38.739Z,15.20
2018-06-24T00:23:07.556Z,15.20
2018-06-24T00:25:36.396Z,15.20
2018-06-24T00:28:05.328Z,15.20
2018-06-24T00:30:34.164Z,15.20
2018-06-24T00:33:02.988Z,15.30
2018-06-24T00:38:00.324Z,15.30
2018-06-24T00:40:29.198Z,15.20
2018-06-24T00:42:58.011Z,15.20
2018-06-24T00:45:26.932Z,15.10
2018-06-24T00:50:24.289Z,15.00
2018-06-24T00:52:53.168Z,14.90
2018-06-24T00:55:22.036Z,14.80
2018-06-24T00:57:50.950Z,14.80
2018-06-24T01:00:19.900Z,14.70
2018-06-24T01:02:48.763Z,14.70
2018-06-24T01:07:46.392Z,14.60
2018-06-24T01:10:15.219Z,14.60
2018-06-24T01:15:12.488Z,14.50
2018-06-24T01:17:41.333Z,14.40
2018-06-24T01:20:10.516Z,14.40
2018-06-24T01:22:39.415Z,14.30
2018-06-24T01:25:08.293Z,14.20
2018-06-24T01:27:37.183Z,14.20
2018-06-24T01:30:06.179Z,14.20
2018-06-24T01:32:35.093Z,14.30
2018-06-24T01:35:03.978Z,14.30
2018-06-24T01:37:32.924Z,14.30
2018-06-24T01:42:30.335Z,14.30
2018-06-24T01:44:59.217Z,14.30
2018-06-24T01:47:28.099Z,14.30
2018-06-24T01:49:56.972Z,14.20
2018-06-24T01:52:25.850Z,14.20
2018-06-24T01:54:54.743Z,14.20
2018-06-24T01:59:52.097Z,14.10
2018-06-24T02:02:21.134Z,14.00
2018-06-24T02:04:50.065Z,14.00
2018-06-24T02:07:19.653Z,14.00
2018-06-24T02:09:48.514Z,14.10
2018-06-24T02:12:17.381Z,14.10
2018-06-24T02:17:14.754Z,14.10
2018-06-24T02:22:12.081Z,14.00
2018-06-24T02:24:41.008Z,14.00
2018-06-24T02:27:09.880Z,14.00
2018-06-24T02:32:07.130Z,13.90
2018-06-24T02:34:36.009Z,14.00
2018-06-24T02:37:04.937Z,14.00
2018-06-24T02:39:33.777Z,13.90
2018-06-24T02:42:02.593Z,13.90
2018-06-24T02:44:31.426Z,13.90
2018-06-24T02:49:28.737Z,13.90
2018-06-24T02:51:57.617Z,13.80
2018-06-24T02:54:26.508Z,13.80
2018-06-24T02:56:55.333Z,13.90
2018-06-24T02:59:24.213Z,13.90
2018-06-24T03:01:53.103Z,13.90
2018-06-24T03:04:22.028Z,13.90
2018-06-24T03:06:50.893Z,13.90
2018-06-24T03:09:19.798Z,13.90
2018-06-24T03:11:48.709Z,13.80
2018-06-24T03:16:46.064Z,13.70
2018-06-24T03:19:14.926Z,13.70
2018-06-24T03:21:43.845Z,13.70
2018-06-24T03:24:12.677Z,13.70
2018-06-24T03:26:41.541Z,13.80
2018-06-24T03:29:10.410Z,13.80
2018-06-24T03:31:39.245Z,13.70
2018-06-24T03:34:08.026Z,13.80
2018-06-24T03:36:36.858Z,13.80
2018-06-24T03:39:08.080Z,13.90
2018-06-24T03:41:36.912Z,13.90
2018-06-24T03:44:05.868Z,13.90
2018-06-24T03:46:34.751Z,13.90
2018-06-24T03:49:03.584Z,13.90
2018-06-24T03:51:32.453Z,13.90
2018-06-24T03:54:01.281Z,13.90
2018-06-24T04:01:27.701Z,14.10
2018-06-24T04:03:56.759Z,14.10
2018-06-24T04:06:25.588Z,14.10
2018-06-24T04:08:54.396Z,14.10
2018-06-24T04:11:23.304Z,14.10
2018-06-24T04:13:52.184Z,14.20
2018-06-24T04:16:21.041Z,14.20
2018-06-24T04:18:49.863Z,14.20
2018-06-24T04:21:18.685Z,14.20
2018-06-24T04:23:47.558Z,14.20
2018-06-24T04:28:44.909Z,14.30
2018-06-24T04:31:13.778Z,14.30
2018-06-24T04:33:42.611Z,14.40
2018-06-24T04:38:39.876Z,14.40
2018-06-24T04:41:09.360Z,14.50
2018-06-24T04:43:38.172Z,14.60
2018-06-24T04:48:35.588Z,14.60
2018-06-24T04:51:04.444Z,14.60
2018-06-24T04:56:01.929Z,14.70
2018-06-24T04:58:31.010Z,14.70
2018-06-24T05:03:28.721Z,14.70
2018-06-24T05:05:57.805Z,14.70
2018-06-24T05:08:26.889Z,14.70
2018-06-24T05:10:55.942Z,14.70
2018-06-24T05:15:53.614Z,14.70
2018-06-24T05:18:22.724Z,14.70
2018-06-24T05:20:51.791Z,14.80
2018-06-24T05:23:20.837Z,14.80
2018-06-24T05:28:18.485Z,14.80
2018-06-24T05:30:47.574Z,14.90
2018-06-24T05:33:16.633Z,14.90
2018-06-24T05:35:45.704Z,15.00
2018-06-24T05:38:15.086Z,15.10
2018-06-24T05:40:44.133Z,15.10
2018-06-24T05:43:13.216Z,15.20
2018-06-24T05:45:42.281Z,15.20
2018-06-24T05:50:40.066Z,15.30
2018-06-24T05:53:09.286Z,15.30
2018-06-24T05:55:38.385Z,15.40
2018-06-24T05:58:07.507Z,15.40
2018-06-24T06:00:36.649Z,15.50
2018-06-24T06:05:34.313Z,15.50
2018-06-24T06:08:03.467Z,15.60
2018-06-24T06:10:32.581Z,15.80
2018-06-24T06:13:01.785Z,15.90
2018-06-24T06:15:30.897Z,16.00
2018-06-24T06:18:00.000Z,15.90
2018-06-24T06:22:57.778Z,16.00
2018-06-24T06:25:26.961Z,16.10
2018-06-24T06:27:56.017Z,16.20
2018-06-24T06:30:25.194Z,16.40
2018-06-24T06:32:54.310Z,16.40
2018-06-24T06:35:23.398Z,16.30
2018-06-24T06:37:52.513Z,16.40
2018-06-24T06:40:21.721Z,16.40
2018-06-24T06:42:50.849Z,16.40
2018-06-24T06:45:20.211Z,16.50
2018-06-24T06:47:49.263Z,16.70
2018-06-24T06:52:47.154Z,17.20
2018-06-24T06:55:16.325Z,17.20
2018-06-24T06:57:45.642Z,17.30
2018-06-24T07:00:14.953Z,17.40
2018-06-24T07:02:44.169Z,17.50
2018-06-24T07:05:13.281Z,17.60
2018-06-24T07:07:42.499Z,17.80
2018-06-24T07:10:11.694Z,17.90
2018-06-24T07:12:40.898Z,18.10
2018-06-24T07:15:10.035Z,18.10
2018-06-24T07:17:39.250Z,18.20
2018-06-24T07:20:08.452Z,18.10
2018-06-24T07:22:37.551Z,18.10
2018-06-24T07:25:06.836Z,18.30
2018-06-24T07:27:36.077Z,18.30
2018-06-24T07:30:05.889Z,18.20
2018-06-24T07:32:35.137Z,18.10
2018-06-24T07:35:04.334Z,18.10
2018-06-24T07:37:33.545Z,18.00
2018-06-24T07:40:02.674Z,18.00
2018-06-24T07:42:31.821Z,17.90
2018-06-24T07:45:01.017Z,18.00
2018-06-24T07:47:30.266Z,17.90
2018-06-24T07:49:59.421Z,17.80
2018-06-24T07:52:28.649Z,17.80
2018-06-24T07:54:57.798Z,17.70
2018-06-24T07:57:27.081Z,17.70
2018-06-24T07:59:56.210Z,17.60
2018-06-24T08:02:25.396Z,17.60
2018-06-24T08:07:23.235Z,17.70
2018-06-24T08:09:52.418Z,17.70
2018-06-24T08:12:21.569Z,17.90
2018-06-24T08:17:19.298Z,18.20
2018-06-24T08:19:48.437Z,18.30
2018-06-24T08:24:46.238Z,18.60
2018-06-24T08:27:15.361Z,18.70
2018-06-24T08:29:44.453Z,18.70
2018-06-24T08:32:13.561Z,18.70
2018-06-24T08:34:42.699Z,18.70
2018-06-24T08:37:12.035Z,18.70
2018-06-24T08:39:41.250Z,18.70
2018-06-24T08:42:11.265Z,18.80
2018-06-24T08:44:40.483Z,18.90
2018-06-24T08:47:10.037Z,19.10
2018-06-24T08:49:39.201Z,19.10
2018-06-24T08:52:08.368Z,19.30
2018-06-24T08:54:37.558Z,19.40
2018-06-24T08:57:06.710Z,19.50
2018-06-24T08:59:35.861Z,19.70
2018-06-24T09:02:05.098Z,19.80
2018-06-24T09:04:34.201Z,19.90
2018-06-24T09:07:03.321Z,19.80
2018-06-24T09:09:32.465Z,19.90
2018-06-24T09:12:01.562Z,20.00
2018-06-24T09:14:30.734Z,19.90
2018-06-24T09:16:59.911Z,19.80
2018-06-24T09:19:29.153Z,20.00
2018-06-24T09:21:58.382Z,20.20
2018-06-24T09:24:27.483Z,20.30
2018-06-24T09:26:56.627Z,20.30
2018-06-24T09:29:25.873Z,20.40
2018-06-24T09:31:55.070Z,20.30
2018-06-24T09:34:24.206Z,20.40
2018-06-24T09:36:53.346Z,20.70
2018-06-24T09:39:22.502Z,20.80
2018-06-24T09:41:51.655Z,20.90
2018-06-24T09:46:49.467Z,20.90
2018-06-24T09:49:18.578Z,20.80
2018-06-24T09:51:47.626Z,20.80
2018-06-24T09:54:16.500Z,20.90
2018-06-24T09:56:45.406Z,21.00
2018-06-24T09:59:14.273Z,21.00
2018-06-24T10:01:43.101Z,20.90
2018-06-24T10:06:41.187Z,20.90
2018-06-24T10:09:11.174Z,21.00
2018-06-24T10:11:40.066Z,21.00
2018-06-24T10:14:09.505Z,21.10
2018-06-24T10:16:38.453Z,21.00
2018-06-24T10:19:07.468Z,20.90
2018-06-24T10:21:36.405Z,20.90
2018-06-24T10:24:05.327Z,20.90
2018-06-24T10:26:34.179Z,20.90
2018-06-24T10:29:03.003Z,21.00
2018-06-24T10:31:31.840Z,21.10
2018-06-24T10:34:00.712Z,21.20
2018-06-24T10:36:29.677Z,21.40
2018-06-24T10:38:58.681Z,21.50
2018-06-24T10:41:27.712Z,21.50
2018-06-24T10:46:25.132Z,22.00
2018-06-24T10:48:54.160Z,22.00
2018-06-24T10:51:23.174Z,22.50
2018-06-24T10:53:52.065Z,22.70
2018-06-24T10:56:21.299Z,22.80
2018-06-24T10:58:50.311Z,23.10
2018-06-24T11:01:19.258Z,23.50
2018-06-24T11:03:48.609Z,23.80
2018-06-24T11:06:17.582Z,24.20
2018-06-24T11:08:46.529Z,24.20
2018-06-24T11:13:43.989Z,23.60
2018-06-24T11:16:13.178Z,23.50
2018-06-24T11:18:42.213Z,23.50
2018-06-24T11:21:11.337Z,23.60
2018-06-24T11:23:40.322Z,23.70
2018-06-24T11:26:09.325Z,24.00
2018-06-24T11:28:38.290Z,24.20
2018-06-24T11:31:08.010Z,24.40
2018-06-24T11:33:36.929Z,24.40
2018-06-24T11:36:06.477Z,24.70
2018-06-24T11:41:04.025Z,24.70
2018-06-24T11:43:32.993Z,24.90
2018-06-24T11:46:01.939Z,25.20
2018-06-24T11:48:30.930Z,25.50
2018-06-24T11:53:28.425Z,25.60
2018-06-24T11:55:57.377Z,25.60
2018-06-24T11:58:26.366Z,25.80
2018-06-24T12:00:55.526Z,25.70
2018-06-24T12:03:24.490Z,25.90
2018-06-24T12:05:53.481Z,26.30
2018-06-24T12:08:22.463Z,26.60
2018-06-24T12:13:19.937Z,26.80
2018-06-24T12:15:48.867Z,26.90
2018-06-24T12:18:17.865Z,27.20
2018-06-24T12:20:47.673Z,27.30
2018-06-24T12:23:16.608Z,27.70
2018-06-24T12:25:45.575Z,27.70
2018-06-24T12:28:14.675Z,27.70
2018-06-24T12:33:12.480Z,27.70
2018-06-24T12:35:41.408Z,27.50
2018-06-24T12:38:10.433Z,27.70
2018-06-24T12:40:39.353Z,27.90
2018-06-24T12:43:08.289Z,28.20
2018-06-24T12:45:37.236Z,28.20
2018-06-24T12:48:06.213Z,28.20
2018-06-24T12:50:35.114Z,28.50
2018-06-24T12:53:03.975Z,28.70
2018-06-24T12:55:32.897Z,28.60
2018-06-24T12:58:01.820Z,27.70
2018-06-24T13:02:59.316Z,26.70
2018-06-24T13:05:28.270Z,26.30
2018-06-24T13:07:57.182Z,26.20
2018-06-24T13:10:26.149Z,26.20
2018-06-24T13:12:55.053Z,25.90
2018-06-24T13:17:52.437Z,25.50
2018-06-24T13:20:21.370Z,25.50
2018-06-24T13:22:50.265Z,25.90
2018-06-24T13:25:19.177Z,26.20
2018-06-24T13:27:48.127Z,26.20
2018-06-24T13:30:17.055Z,25.90
2018-06-24T13:32:46.505Z,25.60
2018-06-24T13:35:15.455Z,25.40
2018-06-24T13:37:45.075Z,25.40
2018-06-24T13:40:14.055Z,25.40
2018-06-24T13:42:42.933Z,25.50
2018-06-24T13:45:11.787Z,26.00
2018-06-24T13:47:40.633Z,26.30
2018-06-24T13:50:10.472Z,26.20
2018-06-24T13:52:39.432Z,26.00
2018-06-24T13:55:08.266Z,25.80
2018-06-24T13:57:37.222Z,25.50
2018-06-24T14:00:06.315Z,25.50
2018-06-24T14:02:35.239Z,25.90
2018-06-24T14:05:04.160Z,26.30
2018-06-24T14:07:33.265Z,26.40
2018-06-24T14:10:02.282Z,26.30
2018-06-24T14:12:31.205Z,25.90
2018-06-24T14:15:00.166Z,25.70
2018-06-24T14:17:29.238Z,25.70
2018-06-24T14:19:58.410Z,25.60
2018-06-24T14:22:27.386Z,25.80
2018-06-24T14:24:56.338Z,25.80
2018-06-24T14:27:25.273Z,25.50
2018-06-24T14:29:54.167Z,25.50
2018-06-24T14:32:22.995Z,25.30
2018-06-24T14:34:51.940Z,25.10
2018-06-24T14:37:20.834Z,25.00
2018-06-24T14:39:49.936Z,25.40
2018-06-24T14:42:18.808Z,26.10
2018-06-24T14:44:47.681Z,26.70
2018-06-24T14:49:45.348Z,27.50
2018-06-24T14:52:14.260Z,27.40
2018-06-24T14:54:43.124Z,27.60
2018-06-24T14:57:12.019Z,27.70
2018-06-24T14:59:40.879Z,27.80
2018-06-24T15:02:09.733Z,27.90
2018-06-24T15:04:38.625Z,28.00
2018-06-24T15:07:07.659Z,27.90
2018-06-24T15:09:36.541Z,27.90
2018-06-24T15:12:05.417Z,27.80
2018-06-24T15:14:34.285Z,27.80
2018-06-24T15:17:03.364Z,28.10
2018-06-24T15:22:00.671Z,27.80
2018-06-24T15:24:29.549Z,27.60
2018-06-24T15:26:58.394Z,27.30
2018-06-24T15:29:27.242Z,27.10
2018-06-24T15:31:56.156Z,27.00
2018-06-24T15:34:25.042Z,27.20
2018-06-24T15:36:53.945Z,27.30
2018-06-24T15:39:22.848Z,27.40
2018-06-24T15:41:51.730Z,27.30
2018-06-24T15:44:20.633Z,27.00
2018-06-24T15:46:50.293Z,26.60
2018-06-24T15:49:19.321Z,26.20
2018-06-24T15:51:48.320Z,25.90
2018-06-24T15:54:17.561Z,25.70
2018-06-24T15:56:46.545Z,25.90
2018-06-24T15:59:15.494Z,26.40
2018-06-24T16:01:45.461Z,26.80
2018-06-24T16:04:14.477Z,26.90
2018-06-24T16:06:43.465Z,26.70
2018-06-24T16:09:14.155Z,26.40
2018-06-24T16:11:43.330Z,26.00
2018-06-24T16:14:12.282Z,25.70
2018-06-24T16:16:41.329Z,25.80
2018-06-24T16:19:10.300Z,26.20
2018-06-24T16:21:39.272Z,26.50
2018-06-24T16:24:08.325Z,26.60
2018-06-24T16:26:37.246Z,26.80
2018-06-24T16:29:06.138Z,26.80
2018-06-24T16:31:35.021Z,26.60
2018-06-24T16:34:03.989Z,26.40
2018-06-24T16:36:32.858Z,26.20
2018-06-24T16:39:01.778Z,25.60
2018-06-24T16:41:30.692Z,25.20
2018-06-24T16:43:59.558Z,24.90
2018-06-24T16:46:28.456Z,24.70
2018-06-24T16:51:25.873Z,24.20
2018-06-24T16:53:54.871Z,24.00
2018-06-24T16:56:23.781Z,23.80
2018-06-24T16:58:52.736Z,23.70
2018-06-24T17:01:21.759Z,23.60
2018-06-24T17:03:50.852Z,23.50
2018-06-24T17:06:19.808Z,23.40
2018-06-24T17:08:48.769Z,23.20
2018-06-24T17:11:18.029Z,23.10
2018-06-24T17:13:47.120Z,23.00
2018-06-24T17:16:16.086Z,22.80
2018-06-24T17:18:45.034Z,22.70
2018-06-24T17:21:13.982Z,22.70
2018-06-24T17:23:42.960Z,22.70
2018-06-24T17:26:11.881Z,22.60
2018-06-24T17:28:40.841Z,22.60
2018-06-24T17:31:10.098Z,22.50
2018-06-24T17:33:39.024Z,22.50
2018-06-24T17:36:07.987Z,22.40
2018-06-24T17:38:37.209Z,22.40
2018-06-24T17:41:06.256Z,22.20
2018-06-24T17:43:35.141Z,22.20
2018-06-24T17:46:04.151Z,22.00
2018-06-24T17:48:33.786Z,22.00
2018-06-24T17:51:03.145Z,21.90
2018-06-24T17:53:32.184Z,21.70
2018-06-24T17:56:01.866Z,21.60
2018-06-24T17:58:30.836Z,21.50
2018-06-24T18:00:59.806Z,21.30
2018-06-24T18:03:28.914Z,21.20
2018-06-24T18:05:57.922Z,21.10
2018-06-24T18:08:28.452Z,20.90
2018-06-24T18:13:26.496Z,20.70
2018-06-24T18:18:25.136Z,20.60
2018-06-24T18:20:56.483Z,20.60
2018-06-24T18:23:27.792Z,20.50
2018-06-24T18:25:56.908Z,20.50
2018-06-24T18:28:26.119Z,20.30
2018-06-24T18:30:55.484Z,20.20
2018-06-24T18:33:24.477Z,20.10
2018-06-24T18:35:53.709Z,20.00
2018-06-24T18:38:22.798Z,19.90
2018-06-24T18:40:51.699Z,19.80
2018-06-24T18:43:20.629Z,19.80
2018-06-24T18:45:49.935Z,19.70
2018-06-24T18:48:19.343Z,19.70
2018-06-24T18:50:48.346Z,19.60
2018-06-24T18:53:18.105Z,19.50
2018-06-24T18:55:47.202Z,19.50
2018-06-24T18:58:16.589Z,19.50
2018-06-24T19:00:47.025Z,19.50
2018-06-24T19:03:15.924Z,19.40
2018-06-24T19:05:44.817Z,19.30
2018-06-24T19:08:13.757Z,19.30
2018-06-24T19:13:11.385Z,19.20
2018-06-24T19:15:41.547Z,19.10
2018-06-24T19:23:09.096Z,19.00
2018-06-24T19:25:38.027Z,18.90
2018-06-24T19:30:36.633Z,19.00
2018-06-24T19:33:06.190Z,18.90
2018-06-24T19:35:35.075Z,18.90
2018-06-24T19:38:04.051Z,18.90
2018-06-24T19:40:33.037Z,18.90
2018-06-24T19:43:01.884Z,18.90
2018-06-24T19:45:30.797Z,18.90
2018-06-24T19:50:28.321Z,18.90
2018-06-24T19:52:58.194Z,18.80
2018-06-24T19:55:27.196Z,18.60
2018-06-24T19:57:56.119Z,18.50
2018-06-24T20:00:25.153Z,18.50
2018-06-24T20:02:54.224Z,18.40
2018-06-24T20:05:23.202Z,18.40
2018-06-24T20:07:52.765Z,18.40
2018-06-24T20:10:21.732Z,18.30
2018-06-24T20:12:50.704Z,18.20
2018-06-24T20:15:19.568Z,18.20
2018-06-24T20:17:48.490Z,18.20
2018-06-24T20:20:18.153Z,18.20
2018-06-24T20:22:47.469Z,18.20
2018-06-24T20:25:16.369Z,18.20
2018-06-24T20:32:42.153Z,18.00
2018-06-24T20:35:10.960Z,18.00
2018-06-24T20:37:39.745Z,17.90
2018-06-24T20:40:08.564Z,17.90
2018-06-24T20:42:37.449Z,17.90
2018-06-24T20:45:06.713Z,17.80
2018-06-24T20:47:35.532Z,17.80
2018-06-24T20:50:04.421Z,17.70
2018-06-24T20:52:33.257Z,17.60
2018-06-24T20:55:02.469Z,17.50
2018-06-24T20:57:31.339Z,17.50
2018-06-24T21:00:00.217Z,17.40
2018-06-24T21:02:29.805Z,17.30
2018-06-24T21:04:58.837Z,17.20
2018-06-24T21:07:27.753Z,17.20
2018-06-24T21:09:56.636Z,17.20
2018-06-24T21:12:25.520Z,17.10
2018-06-24T21:14:54.449Z,17.10
2018-06-24T21:19:51.815Z,17.00
2018-06-24T21:24:49.157Z,17.00
2018-06-24T21:27:18.084Z,17.00
2018-06-24T21:29:47.081Z,17.00
2018-06-24T21:32:15.919Z,16.90
2018-06-24T21:34:44.725Z,16.90
2018-06-24T21:37:13.541Z,16.90
2018-06-24T21:42:10.778Z,16.80
2018-06-24T21:44:39.601Z,16.80
2018-06-24T21:49:36.972Z,16.70
2018-06-24T21:52:06.069Z,16.60
2018-06-24T21:54:34.948Z,16.60
2018-06-24T21:59:32.220Z,16.60
2018-06-24T22:04:29.673Z,16.60
2018-06-24T22:06:58.557Z,16.50
2018-06-24T22:09:27.409Z,16.40
2018-06-24T22:11:56.301Z,16.40
2018-06-24T22:14:25.149Z,16.30
2018-06-24T22:19:22.669Z,16.30
2018-06-24T22:21:51.570Z,16.30
2018-06-24T22:24:20.484Z,16.30
2018-06-24T22:26:49.341Z,16.20
2018-06-24T22:29:18.280Z,16.20
2018-06-24T22:31:47.186Z,16.20
2018-06-24T22:36:44.472Z,16.00
2018-06-24T22:39:13.352Z,16.00
2018-06-24T22:41:42.393Z,15.90
2018-06-24T22:46:39.620Z,15.80
2018-06-24T22:49:08.457Z,15.80
2018-06-24T22:51:37.368Z,15.80
2018-06-24T22:54:06.287Z,15.80
2018-06-24T22:56:35.101Z,15.90
2018-06-24T22:59:15.024Z,15.90
2018-06-24T23:01:43.867Z,16.00
2018-06-24T23:04:12.724Z,16.00
2018-06-24T23:06:41.649Z,16.00
2018-06-24T23:09:10.597Z,16.00
2018-06-24T23:11:39.706Z,16.00
2018-06-24T23:14:08.581Z,15.90
2018-06-24T23:16:37.530Z,15.90
2018-06-24T23:19:06.384Z,15.90
2018-06-24T23:21:35.209Z,15.90
2018-06-24T23:24:04.033Z,16.00
2018-06-24T23:29:01.214Z,16.00
2018-06-24T23:31:30.097Z,16.00
2018-06-24T23:33:59.116Z,15.90
2018-06-24T23:36:28.018Z,16.00
2018-06-24T23:38:56.909Z,15.90
2018-06-24T23:41:25.740Z,15.90
2018-06-24T23:43:54.568Z,15.90
2018-06-24T23:46:23.412Z,15.90
2018-06-24T23:48:52.277Z,15.80
2018-06-24T23:51:21.121Z,15.80
2018-06-24T23:53:50.040Z,15.80
2018-06-24T23:56:18.853Z,15.70
2018-06-24T23:58:47.754Z,15.70
